createdAt,value
2018-05-29T00:01:19.549Z,20.17
2018-05-29T00:03:47.005Z,20.13
2018-05-29T00:06:14.545Z,20.03
2018-05-29T00:08:42.000Z,19.90
2018-05-29T00:11:09.439Z,19.84
2018-05-29T00:13:36.879Z,19.76
2018-05-29T00:16:04.450Z,19.73
2018-05-29T00:18:31.915Z,19.54
2018-05-29T00:20:59.381Z,19.54
2018-05-29T00:23:26.820Z,19.50
2018-05-29T00:25:54.297Z,19.40
2018-05-29T00:28:21.787Z,19.41
2018-05-29T00:30:49.262Z,19.50
2018-05-29T00:33:16.754Z,19.61
2018-05-29T00:35:44.191Z,19.60
2018-05-29T00:38:11.636Z,19.65
2018-05-29T00:40:39.117Z,19.57
2018-05-29T00:43:06.594Z,19.56
2018-05-29T00:45:34.036Z,19.50
2018-05-29T00:48:01.475Z,19.45
2018-05-29T00:50:28.937Z,19.47
2018-05-29T00:52:56.478Z,19.48
2018-05-29T00:55:35.757Z,19.43
2018-05-29T00:58:03.212Z,19.37
2018-05-29T01:00:30.661Z,19.35
2018-05-29T01:02:58.185Z,19.17
2018-05-29T01:05:25.733Z,19.04
2018-05-29T01:07:53.176Z,19.00
2018-05-29T01:10:20.734Z,18.91
2018-05-29T01:12:48.258Z,18.89
2018-05-29T01:15:15.684Z,18.79
2018-05-29T01:17:43.156Z,18.77
2018-05-29T01:20:10.616Z,18.80
2018-05-29T01:22:38.065Z,18.78
2018-05-29T01:25:05.533Z,18.68
2018-05-29T01:27:34.016Z,18.63
2018-05-29T01:30:01.452Z,18.62
2018-05-29T01:32:28.896Z,18.57
2018-05-29T01:34:56.361Z,18.54
2018-05-29T01:37:23.821Z,18.50
2018-05-29T01:39:51.254Z,18.50
2018-05-29T01:42:18.756Z,18.50
2018-05-29T01:44:46.224Z,18.45
2018-05-29T01:47:13.665Z,18.41
2018-05-29T01:49:41.153Z,18.35
2018-05-29T01:52:08.630Z,18.30
2018-05-29T01:54:36.146Z,18.28
2018-05-29T01:57:03.572Z,18.32
2018-05-29T01:59:31.038Z,18.28
2018-05-29T02:01:58.500Z,18.28
2018-05-29T02:04:26.349Z,18.23
2018-05-29T02:06:53.803Z,18.13
2018-05-29T02:09:21.331Z,18.04
2018-05-29T02:11:48.788Z,18.00
2018-05-29T02:14:16.261Z,17.97
2018-05-29T02:16:43.715Z,17.92
2018-05-29T02:19:11.154Z,17.91
2018-05-29T02:21:38.790Z,17.94
2018-05-29T02:24:06.238Z,17.95
2018-05-29T02:26:33.683Z,18.06
2018-05-29T02:29:01.230Z,18.05
2018-05-29T02:31:28.658Z,18.08
2018-05-29T02:33:56.112Z,18.08
2018-05-29T02:36:23.542Z,18.06
2018-05-29T02:38:50.995Z,18.05
2018-05-29T02:41:18.446Z,18.03
2018-05-29T02:43:45.872Z,18.01
2018-05-29T02:46:13.393Z,17.97
2018-05-29T02:48:40.866Z,17.93
2018-05-29T02:51:08.405Z,17.97
2018-05-29T02:53:35.850Z,17.95
2018-05-29T02:56:03.312Z,17.98
2018-05-29T02:58:30.766Z,17.99
2018-05-29T03:00:58.198Z,17.93
2018-05-29T03:03:25.669Z,17.86
2018-05-29T03:05:53.100Z,17.65
2018-05-29T03:08:20.557Z,17.71
2018-05-29T03:10:48.020Z,17.72
2018-05-29T03:13:15.465Z,17.69
2018-05-29T03:15:42.940Z,17.71
2018-05-29T03:18:10.389Z,17.64
2018-05-29T03:20:37.830Z,17.68
2018-05-29T03:23:05.334Z,17.68
2018-05-29T03:25:32.894Z,17.73
2018-05-29T03:28:00.335Z,17.83
2018-05-29T03:30:27.767Z,17.95
2018-05-29T03:32:55.219Z,17.94
2018-05-29T03:35:22.656Z,17.96
2018-05-29T03:37:50.160Z,18.00
2018-05-29T03:40:17.606Z,18.08
2018-05-29T03:42:45.064Z,18.06
2018-05-29T03:45:12.556Z,18.07
2018-05-29T03:47:40.009Z,18.09
2018-05-29T03:50:07.459Z,18.05
2018-05-29T03:52:34.915Z,18.11
2018-05-29T03:55:02.381Z,18.22
2018-05-29T03:57:29.810Z,18.21
2018-05-29T03:59:57.366Z,18.26
2018-05-29T04:02:24.818Z,18.29
2018-05-29T04:04:52.237Z,18.38
2018-05-29T04:07:19.694Z,18.40
2018-05-29T04:09:47.175Z,18.45
2018-05-29T04:12:14.670Z,18.50
2018-05-29T04:14:42.116Z,18.52
2018-05-29T04:17:09.604Z,18.57
2018-05-29T04:19:37.158Z,18.60
2018-05-29T04:22:04.740Z,18.87
2018-05-29T04:24:32.280Z,19.13
2018-05-29T04:26:59.722Z,19.25
2018-05-29T04:29:27.190Z,19.55
2018-05-29T04:31:54.738Z,20.00
2018-05-29T04:34:22.202Z,20.27
2018-05-29T04:36:49.653Z,20.61
2018-05-29T04:39:17.108Z,20.56
2018-05-29T04:41:44.681Z,20.61
2018-05-29T04:44:12.117Z,20.58
2018-05-29T04:46:39.590Z,20.72
2018-05-29T04:49:07.028Z,20.84
2018-05-29T04:51:34.465Z,21.23
2018-05-29T04:54:01.912Z,21.27
2018-05-29T04:56:29.465Z,21.55
2018-05-29T04:58:56.925Z,21.30
2018-05-29T05:01:24.368Z,21.02
2018-05-29T05:03:51.836Z,20.95
2018-05-29T05:06:19.318Z,20.65
2018-05-29T05:08:46.772Z,20.97
2018-05-29T05:11:14.242Z,20.86
2018-05-29T05:13:41.699Z,20.60
2018-05-29T05:16:09.185Z,20.51
2018-05-29T05:18:36.621Z,20.42
2018-05-29T05:21:04.089Z,20.31
2018-05-29T05:23:31.527Z,20.22
2018-05-29T05:25:59.011Z,20.87
2018-05-29T05:28:26.450Z,21.38
2018-05-29T05:30:53.906Z,21.64
2018-05-29T05:33:21.608Z,21.96
2018-05-29T05:35:49.049Z,22.18
2018-05-29T05:38:16.484Z,22.36
2018-05-29T05:40:44.023Z,22.74
2018-05-29T05:43:11.450Z,23.13
2018-05-29T05:45:38.900Z,23.41
2018-05-29T05:48:06.451Z,23.47
2018-05-29T05:50:33.932Z,23.96
2018-05-29T05:53:01.362Z,23.72
2018-05-29T05:55:28.892Z,23.87
2018-05-29T05:57:56.322Z,23.84
2018-05-29T06:00:23.783Z,23.73
2018-05-29T06:02:51.244Z,23.61
2018-05-29T06:05:18.691Z,23.97
2018-05-29T06:07:46.196Z,23.91
2018-05-29T06:10:13.758Z,23.86
2018-05-29T06:12:41.328Z,24.00
2018-05-29T06:15:08.773Z,23.92
2018-05-29T06:17:36.384Z,23.68
2018-05-29T06:20:03.831Z,24.04
2018-05-29T06:22:31.285Z,24.28
2018-05-29T06:24:58.735Z,24.27
2018-05-29T06:27:26.247Z,24.05
2018-05-29T06:29:53.737Z,23.99
2018-05-29T06:32:21.177Z,24.11
2018-05-29T06:34:48.827Z,24.07
2018-05-29T06:37:16.289Z,23.71
2018-05-29T06:39:43.772Z,23.20
2018-05-29T06:42:11.305Z,23.30
2018-05-29T06:44:38.795Z,23.32
2018-05-29T06:47:06.256Z,23.03
2018-05-29T06:49:33.737Z,23.13
2018-05-29T06:52:01.177Z,23.14
2018-05-29T06:54:28.650Z,23.21
2018-05-29T06:56:56.101Z,23.21
2018-05-29T06:59:23.536Z,23.17
2018-05-29T07:01:50.991Z,23.21
2018-05-29T07:04:18.456Z,23.09
2018-05-29T07:06:45.913Z,22.94
2018-05-29T07:09:30.421Z,22.84
2018-05-29T07:11:57.897Z,22.79
2018-05-29T07:14:25.458Z,22.82
2018-05-29T07:16:52.904Z,22.86
2018-05-29T07:19:20.449Z,22.86
2018-05-29T07:21:47.891Z,23.06
2018-05-29T07:24:15.367Z,23.37
2018-05-29T07:26:42.831Z,23.32
2018-05-29T07:29:10.286Z,23.41
2018-05-29T07:31:37.743Z,23.83
2018-05-29T07:34:05.202Z,24.09
2018-05-29T07:36:32.632Z,24.48
2018-05-29T07:39:00.074Z,24.86
2018-05-29T07:41:27.617Z,25.23
2018-05-29T07:43:55.099Z,25.16
2018-05-29T07:46:22.591Z,24.91
2018-05-29T07:48:50.035Z,25.33
2018-05-29T07:51:17.489Z,25.26
2018-05-29T07:53:45.070Z,25.14
2018-05-29T07:56:12.496Z,25.34
2018-05-29T07:58:39.929Z,25.16
2018-05-29T08:01:07.471Z,25.05
2018-05-29T08:03:35.016Z,25.24
2018-05-29T08:06:02.582Z,25.38
2018-05-29T08:08:30.129Z,25.73
2018-05-29T08:10:57.738Z,25.71
2018-05-29T08:13:25.239Z,25.65
2018-05-29T08:15:52.716Z,25.90
2018-05-29T08:18:20.253Z,26.12
2018-05-29T08:20:47.735Z,26.25
2018-05-29T08:23:15.203Z,26.17
2018-05-29T08:25:42.731Z,25.89
2018-05-29T08:28:10.182Z,25.95
2018-05-29T08:30:37.657Z,26.14
2018-05-29T08:33:05.115Z,26.13
2018-05-29T08:35:32.802Z,25.69
2018-05-29T08:38:00.301Z,25.65
2018-05-29T08:40:27.753Z,25.34
2018-05-29T08:42:55.218Z,25.18
2018-05-29T08:45:22.722Z,25.59
2018-05-29T08:47:50.264Z,25.57
2018-05-29T08:50:17.721Z,25.76
2018-05-29T08:52:45.272Z,25.20
2018-05-29T08:55:12.732Z,25.46
2018-05-29T08:57:40.191Z,25.47
2018-05-29T09:00:07.646Z,25.63
2018-05-29T09:02:35.127Z,25.72
2018-05-29T09:05:02.717Z,25.59
2018-05-29T09:07:30.237Z,25.81
2018-05-29T09:09:57.699Z,26.00
2018-05-29T09:12:25.151Z,26.24
2018-05-29T09:14:52.590Z,26.27
2018-05-29T09:17:20.017Z,26.41
2018-05-29T09:19:47.512Z,26.32
2018-05-29T09:22:15.003Z,25.67
2018-05-29T09:24:42.505Z,25.77
2018-05-29T09:27:09.953Z,25.52
2018-05-29T09:29:37.455Z,25.90
2018-05-29T09:32:04.977Z,25.70
2018-05-29T09:34:32.572Z,25.86
2018-05-29T09:37:00.103Z,25.76
2018-05-29T09:39:27.594Z,25.90
2018-05-29T09:41:55.153Z,26.41
2018-05-29T09:44:22.580Z,26.39
2018-05-29T09:46:50.013Z,26.44
2018-05-29T09:49:17.594Z,26.63
2018-05-29T09:51:45.087Z,26.37
2018-05-29T09:54:12.547Z,26.16
2018-05-29T09:56:40.216Z,25.79
2018-05-29T09:59:07.682Z,25.77
2018-05-29T10:01:35.128Z,25.50
2018-05-29T10:04:02.620Z,25.71
2018-05-29T10:06:30.193Z,25.45
2018-05-29T10:08:57.988Z,25.88
2018-05-29T10:11:25.540Z,26.12
2018-05-29T10:13:53.424Z,26.49
2018-05-29T10:16:21.320Z,26.50
2018-05-29T10:18:49.013Z,26.65
2018-05-29T10:21:16.454Z,26.82
2018-05-29T10:23:43.941Z,27.17
2018-05-29T10:26:11.419Z,27.60
2018-05-29T10:28:39.022Z,27.10
2018-05-29T10:31:06.508Z,27.60
2018-05-29T10:33:35.955Z,27.50
2018-05-29T10:36:03.407Z,27.30
2018-05-29T10:38:33.067Z,27.34
2018-05-29T10:41:00.529Z,27.69
2018-05-29T10:43:27.999Z,28.32
2018-05-29T10:45:55.492Z,28.72
2018-05-29T10:48:22.913Z,28.40
2018-05-29T10:50:50.449Z,28.15
2018-05-29T10:53:17.944Z,28.35
2018-05-29T10:55:45.433Z,28.78
2018-05-29T10:58:12.983Z,28.86
2018-05-29T11:00:40.537Z,28.86
2018-05-29T11:03:08.072Z,29.34
2018-05-29T11:05:35.580Z,29.27
2018-05-29T11:08:03.049Z,29.18
2018-05-29T11:10:30.575Z,29.13
2018-05-29T11:12:58.110Z,28.82
2018-05-29T11:15:25.836Z,28.95
2018-05-29T11:17:53.314Z,28.93
2018-05-29T11:20:20.931Z,28.84
2018-05-29T11:22:48.371Z,29.23
2018-05-29T11:25:15.805Z,29.07
2018-05-29T11:27:43.245Z,29.51
2018-05-29T11:30:10.677Z,29.42
2018-05-29T11:32:38.151Z,29.24
2018-05-29T11:35:05.581Z,29.05
2018-05-29T11:37:33.111Z,28.93
2018-05-29T11:40:00.573Z,28.56
2018-05-29T11:42:28.068Z,29.35
2018-05-29T11:44:55.511Z,30.23
2018-05-29T11:47:23.036Z,31.20
2018-05-29T11:49:50.519Z,30.91
2018-05-29T11:52:18.006Z,31.29
2018-05-29T11:54:46.433Z,31.43
2018-05-29T11:57:14.028Z,31.05
2018-05-29T11:59:41.521Z,30.97
2018-05-29T12:02:08.977Z,32.10
2018-05-29T12:04:36.448Z,31.92
2018-05-29T12:07:03.866Z,32.39
2018-05-29T12:09:31.333Z,32.48
2018-05-29T12:12:10.491Z,34.09
2018-05-29T12:14:38.032Z,35.42
2018-05-29T12:17:05.467Z,35.01
2018-05-29T12:19:32.931Z,33.56
2018-05-29T12:22:00.481Z,33.78
2018-05-29T12:24:27.942Z,34.65
2018-05-29T12:26:55.400Z,35.54
2018-05-29T12:29:22.837Z,34.60
2018-05-29T12:31:50.424Z,33.17
2018-05-29T12:34:17.935Z,32.67
2018-05-29T12:36:45.405Z,34.14
2018-05-29T12:39:13.005Z,33.65
2018-05-29T12:41:40.464Z,33.33
2018-05-29T12:46:34.636Z,32.37
2018-05-29T12:49:02.103Z,31.55
2018-05-29T12:51:29.572Z,33.43
2018-05-29T12:53:57.001Z,35.36
2018-05-29T12:56:24.488Z,36.20
2018-05-29T12:58:51.932Z,36.69
2018-05-29T13:01:19.409Z,36.43
2018-05-29T13:03:47.105Z,35.84
2018-05-29T13:06:14.610Z,34.13
2018-05-29T13:08:42.083Z,32.32
2018-05-29T13:11:09.535Z,31.38
2018-05-29T13:13:38.465Z,30.19
2018-05-29T13:16:05.894Z,29.18
2018-05-29T13:18:33.342Z,28.76
2018-05-29T13:21:00.788Z,27.95
2018-05-29T13:23:28.249Z,27.83
2018-05-29T13:25:55.685Z,27.44
2018-05-29T13:28:23.198Z,27.91
2018-05-29T13:30:50.681Z,28.75
2018-05-29T13:33:18.141Z,29.33
2018-05-29T13:35:45.596Z,30.11
2018-05-29T13:38:13.155Z,29.98
2018-05-29T13:40:40.678Z,29.38
2018-05-29T13:43:08.117Z,28.89
2018-05-29T13:45:35.576Z,28.08
2018-05-29T13:48:03.026Z,26.30
2018-05-29T13:50:30.494Z,26.46
2018-05-29T13:52:57.978Z,25.94
2018-05-29T13:55:25.453Z,26.12
2018-05-29T13:57:52.911Z,26.32
2018-05-29T14:00:20.360Z,26.24
2018-05-29T14:02:47.892Z,26.17
2018-05-29T14:05:15.373Z,26.06
2018-05-29T14:07:42.817Z,25.40
2018-05-29T14:10:10.278Z,24.92
2018-05-29T14:12:37.751Z,24.69
2018-05-29T14:15:05.249Z,24.40
2018-05-29T14:17:32.737Z,24.29
2018-05-29T14:20:00.197Z,23.62
2018-05-29T14:22:27.677Z,23.41
2018-05-29T14:24:55.182Z,23.49
2018-05-29T14:27:22.637Z,23.31
2018-05-29T14:29:50.095Z,23.52
2018-05-29T14:32:17.820Z,23.88
2018-05-29T14:34:45.337Z,23.55
2018-05-29T14:37:12.834Z,23.34
2018-05-29T14:39:40.279Z,23.36
2018-05-29T14:42:07.722Z,23.18
2018-05-29T14:44:35.192Z,23.48
2018-05-29T14:47:02.768Z,23.34
2018-05-29T14:49:30.225Z,22.96
2018-05-29T14:51:57.693Z,23.26
2018-05-29T14:54:25.320Z,23.54
2018-05-29T14:56:52.804Z,23.18
2018-05-29T14:59:20.447Z,23.44
2018-05-29T15:01:48.967Z,23.72
2018-05-29T15:04:16.422Z,23.63
2018-05-29T15:06:43.901Z,23.49
2018-05-29T15:09:11.683Z,23.10
2018-05-29T15:11:39.228Z,22.74
2018-05-29T15:14:06.726Z,22.75
2018-05-29T15:16:34.151Z,22.68
2018-05-29T15:19:01.729Z,22.92
2018-05-29T15:21:29.157Z,23.22
2018-05-29T15:23:56.690Z,23.33
2018-05-29T15:26:24.118Z,23.66
2018-05-29T15:28:51.655Z,23.95
2018-05-29T15:31:19.096Z,24.75
2018-05-29T15:33:46.543Z,25.44
2018-05-29T15:36:13.987Z,26.37
2018-05-29T15:38:41.869Z,27.88
2018-05-29T15:41:09.339Z,29.73
2018-05-29T15:43:36.842Z,31.72
2018-05-29T15:46:04.361Z,32.67
2018-05-29T15:48:31.846Z,31.41
2018-05-29T15:50:59.325Z,29.88
2018-05-29T15:53:26.820Z,29.01
2018-05-29T15:55:54.218Z,28.41
2018-05-29T15:58:21.661Z,28.07
2018-05-29T16:00:49.125Z,27.75
2018-05-29T16:03:16.588Z,27.38
2018-05-29T16:05:44.037Z,27.20
2018-05-29T16:08:11.494Z,27.59
2018-05-29T16:10:38.950Z,29.02
2018-05-29T16:13:06.399Z,30.04
2018-05-29T16:15:33.864Z,32.02
2018-05-29T16:18:01.333Z,33.42
2018-05-29T16:20:28.890Z,34.51
2018-05-29T16:22:56.371Z,35.61
2018-05-29T16:25:23.903Z,36.72
2018-05-29T16:27:51.342Z,37.15
2018-05-29T16:30:18.781Z,38.03
2018-05-29T16:32:46.529Z,38.54
2018-05-29T16:35:13.962Z,38.19
2018-05-29T16:37:41.434Z,38.68
2018-05-29T16:40:08.917Z,38.74
2018-05-29T16:42:36.382Z,38.69
2018-05-29T16:45:03.838Z,38.87
2018-05-29T16:47:31.333Z,38.88
2018-05-29T16:49:58.777Z,39.34
2018-05-29T16:52:26.239Z,39.35
2018-05-29T16:54:53.666Z,38.24
2018-05-29T16:57:21.159Z,38.41
2018-05-29T16:59:48.708Z,38.53
2018-05-29T17:02:16.192Z,38.09
2018-05-29T17:04:43.781Z,38.49
2018-05-29T17:07:11.304Z,38.37
2018-05-29T17:09:38.830Z,37.82
2018-05-29T17:12:06.288Z,37.09
2018-05-29T17:14:34.565Z,36.81
2018-05-29T17:17:02.025Z,37.03
2018-05-29T17:19:29.505Z,36.61
2018-05-29T17:21:57.137Z,36.58
2018-05-29T17:24:24.562Z,36.42
2018-05-29T17:26:52.001Z,35.98
2018-05-29T17:29:19.441Z,36.02
2018-05-29T17:31:46.881Z,35.92
2018-05-29T17:34:14.330Z,35.22
2018-05-29T17:36:42.060Z,35.51
2018-05-29T17:39:09.527Z,34.97
2018-05-29T17:41:37.030Z,33.42
2018-05-29T17:44:04.549Z,32.68
2018-05-29T17:46:32.045Z,32.47
2018-05-29T17:48:59.508Z,32.51
2018-05-29T17:51:27.069Z,32.97
2018-05-29T17:53:54.546Z,32.87
2018-05-29T17:56:22.028Z,32.70
2018-05-29T17:58:49.466Z,32.24
2018-05-29T18:01:16.935Z,31.39
2018-05-29T18:03:44.652Z,30.40
2018-05-29T18:06:12.150Z,29.65
2018-05-29T18:08:39.578Z,28.76
2018-05-29T18:11:07.020Z,28.31
2018-05-29T18:13:34.453Z,27.96
2018-05-29T18:16:01.912Z,27.59
2018-05-29T18:18:29.400Z,27.11
2018-05-29T18:20:56.930Z,26.89
2018-05-29T18:23:24.424Z,26.73
2018-05-29T18:25:51.977Z,26.63
2018-05-29T18:28:21.226Z,26.57
2018-05-29T18:30:49.027Z,26.35
2018-05-29T18:33:16.568Z,26.11
2018-05-29T18:35:44.008Z,25.83
2018-05-29T18:38:11.448Z,25.65
2018-05-29T18:40:38.967Z,25.29
2018-05-29T18:43:07.593Z,25.09
2018-05-29T18:45:35.065Z,24.83
2018-05-29T18:48:02.573Z,24.78
2018-05-29T18:50:30.060Z,24.53
2018-05-29T18:52:57.688Z,24.44
2018-05-29T18:55:25.190Z,24.19
2018-05-29T18:57:52.664Z,24.12
2018-05-29T19:00:20.132Z,23.82
2018-05-29T19:02:47.726Z,23.64
2018-05-29T19:05:15.270Z,23.49
2018-05-29T19:07:42.758Z,22.99
2018-05-29T19:10:10.214Z,22.88
2018-05-29T19:12:37.679Z,22.79
2018-05-29T19:15:05.265Z,22.74
2018-05-29T19:17:32.742Z,22.63
2018-05-29T19:20:00.949Z,22.52
2018-05-29T19:22:28.552Z,22.38
2018-05-29T19:24:56.012Z,22.33
2018-05-29T19:27:23.517Z,22.28
2018-05-29T19:29:51.188Z,22.21
2018-05-29T19:32:18.648Z,22.08
2018-05-29T19:34:46.202Z,21.87
2018-05-29T19:37:13.675Z,21.80
2018-05-29T19:39:41.153Z,21.52
2018-05-29T19:42:08.653Z,21.40
2018-05-29T19:44:39.161Z,21.27
2018-05-29T19:47:06.766Z,21.11
2018-05-29T19:49:34.228Z,21.01
2018-05-29T19:52:01.683Z,20.88
2018-05-29T19:54:29.185Z,20.79
2018-05-29T19:56:56.641Z,20.66
2018-05-29T19:59:24.178Z,20.64
2018-05-29T20:01:51.754Z,20.60
2018-05-29T20:04:19.217Z,20.58
2018-05-29T20:06:46.714Z,20.49
2018-05-29T20:09:14.222Z,20.38
2018-05-29T20:11:41.716Z,20.28
2018-05-29T20:14:09.159Z,20.24
2018-05-29T20:16:36.678Z,20.14
2018-05-29T20:19:04.275Z,20.07
2018-05-29T20:21:31.813Z,20.04
2018-05-29T20:23:59.298Z,20.02
2018-05-29T20:26:26.756Z,20.01
2018-05-29T20:28:54.235Z,20.03
2018-05-29T20:31:21.685Z,19.96
2018-05-29T20:33:49.136Z,19.92
2018-05-29T20:36:16.574Z,19.82
2018-05-29T20:38:44.296Z,19.78
2018-05-29T20:41:11.800Z,19.72
2018-05-29T20:43:39.423Z,19.71
2018-05-29T20:46:06.956Z,19.82
2018-05-29T20:48:34.480Z,19.85
2018-05-29T20:51:01.958Z,19.80
2018-05-29T20:53:29.399Z,19.72
2018-05-29T20:55:56.839Z,19.68
2018-05-29T20:58:24.413Z,19.64
2018-05-29T21:00:51.878Z,19.67
2018-05-29T21:03:20.841Z,19.60
2018-05-29T21:05:48.277Z,19.54
2018-05-29T21:08:15.729Z,19.53
2018-05-29T21:10:43.287Z,19.40
2018-05-29T21:13:10.756Z,19.36
2018-05-29T21:15:38.290Z,19.33
2018-05-29T21:18:05.745Z,19.29
2018-05-29T21:20:33.328Z,19.25
2018-05-29T21:23:00.846Z,19.19
2018-05-29T21:25:28.299Z,19.10
2018-05-29T21:27:55.745Z,19.03
2018-05-29T21:30:23.213Z,18.98
2018-05-29T21:32:50.641Z,18.89
2018-05-29T21:35:18.124Z,18.77
2018-05-29T21:37:45.609Z,18.59
2018-05-29T21:40:13.261Z,18.54
2018-05-29T21:42:40.681Z,18.54
2018-05-29T21:45:08.132Z,18.51
2018-05-29T21:47:35.585Z,18.48
2018-05-29T21:50:03.082Z,18.51
2018-05-29T21:52:30.536Z,18.86
2018-05-29T21:54:58.030Z,19.00
2018-05-29T21:57:25.511Z,19.02
2018-05-29T21:59:53.018Z,19.21
2018-05-29T22:02:20.468Z,19.43
2018-05-29T22:04:47.913Z,19.32
2018-05-29T22:07:15.364Z,19.49
2018-05-29T22:09:42.814Z,19.18
2018-05-29T22:12:11.034Z,18.86
2018-05-29T22:14:38.584Z,18.63
2018-05-29T22:17:06.140Z,18.45
2018-05-29T22:19:33.615Z,18.45
2018-05-29T22:22:01.061Z,18.31
2018-05-29T22:24:28.604Z,18.27
2018-05-29T22:26:56.030Z,18.23
2018-05-29T22:29:23.485Z,18.16
2018-05-29T22:31:50.921Z,18.12
2018-05-29T22:34:18.377Z,18.04
2018-05-29T22:36:45.916Z,18.01
2018-05-29T22:39:13.374Z,17.99
2018-05-29T22:41:40.916Z,17.92
2018-05-29T22:44:08.348Z,17.91
2018-05-29T22:46:35.824Z,17.92
2018-05-29T22:49:03.272Z,17.89
2018-05-29T22:51:30.774Z,17.88
2018-05-29T22:53:58.226Z,17.85
2018-05-29T22:56:26.819Z,17.76
2018-05-29T22:58:56.279Z,17.76
2018-05-29T23:01:24.662Z,17.72
2018-05-29T23:03:52.101Z,17.70
2018-05-29T23:06:19.548Z,17.71
2018-05-29T23:08:47.017Z,17.67
2018-05-29T23:11:14.549Z,17.64
2018-05-29T23:13:42.035Z,17.60
2018-05-29T23:16:09.484Z,17.56
2018-05-29T23:18:36.935Z,17.50
2018-05-29T23:21:04.384Z,17.42
2018-05-29T23:23:31.890Z,17.42
2018-05-29T23:25:59.338Z,17.32
2018-05-29T23:28:26.789Z,17.30
2018-05-29T23:30:54.259Z,17.29
2018-05-29T23:33:21.817Z,17.25
2018-05-29T23:35:49.271Z,17.25
2018-05-29T23:38:16.728Z,17.22
2018-05-29T23:40:44.169Z,17.16
2018-05-29T23:43:11.612Z,17.09
2018-05-29T23:45:39.074Z,17.10
2018-05-29T23:48:06.513Z,17.10
2018-05-29T23:50:33.999Z,17.02
2018-05-29T23:53:01.449Z,16.95
2018-05-29T23:55:28.899Z,16.96
2018-05-29T23:57:56.341Z,16.94
